Time;durP1;ratioP1;P1;durP2;ratioP2;P2;SDS_P1;SDS_P2;PMS_P1;PMS_P2;Temp;Humidity;BMP_temperature;BMP_pressure;BME280_temperature;BME280_humidity;BME280_pressure;Samples;Min_cycle;Max_cycle;Signal;HPM_P1;HPM_P2
2022/08/06 00:02:25;;;;;;;9.68;7.93;;;;;;;25.13;54.32;99741.47;5107970;28;20027;-28
2022/08/06 00:04:51;;;;;;;11.52;7.07;;;;;;;24.74;55.01;99724.16;5089410;28;20028;-30
2022/08/06 00:07:17;;;;;;;10.20;7.05;;;;;;;24.76;55.64;99727.38;5089180;28;20027;-29
2022/08/06 00:09:43;;;;;;;8.38;6.90;;;;;;;24.72;55.66;99726.41;5107071;28;20081;-35
2022/08/06 00:12:09;;;;;;;13.25;7.72;;;;;;;24.64;55.24;99735.41;5089074;28;20032;-32
2022/08/06 00:14:34;;;;;;;8.18;6.47;;;;;;;24.40;55.76;99735.88;5107845;28;20115;-29
2022/08/06 00:17:00;;;;;;;10.52;7.65;;;;;;;24.20;56.29;99710.03;5107573;28;20092;-33
2022/08/06 00:19:26;;;;;;;12.10;7.95;;;;;;;24.70;55.29;99734.13;5089266;28;20032;-31
2022/08/06 00:21:53;;;;;;;10.30;7.50;;;;;;;24.69;55.31;99732.53;5088994;28;20027;-28
2022/08/06 00:24:19;;;;;;;8.88;7.00;;;;;;;24.64;54.92;99727.22;5089468;28;20515;-29
2022/08/06 00:26:45;;;;;;;10.32;7.50;;;;;;;24.70;54.57;99728.66;5088893;28;20076;-36
2022/08/06 00:29:11;;;;;;;13.00;7.93;;;;;;;24.83;53.69;99733.16;5108056;28;20035;-35
2022/08/06 00:31:36;;;;;;;9.55;6.65;;;;;;;24.16;56.02;99737.09;5107512;28;20058;-30
2022/08/06 00:34:03;;;;;;;8.57;6.90;;;;;;;24.53;54.76;99728.69;5106989;28;20027;-33
2022/08/06 00:36:30;;;;;;;12.07;7.22;;;;;;;24.19;55.74;99720.13;5072463;28;20028;-29
2022/08/06 00:39:02;;;;;;;9.00;7.22;;;;;;;24.20;55.47;99731.84;5088748;28;20032;-31
2022/08/06 00:41:29;;;;;;;8.93;6.82;;;;;;;24.17;55.21;99732.44;5088401;28;20520;-33
2022/08/06 00:43:56;;;;;;;8.10;6.50;;;;;;;24.17;55.15;99727.00;5088901;28;20046;-30
2022/08/06 00:46:22;;;;;;;11.73;7.47;;;;;;;23.91;55.61;99710.63;5106615;28;20408;-32
2022/08/06 00:48:48;;;;;;;9.63;7.17;;;;;;;24.09;55.61;99722.34;5088589;28;20067;-29
2022/08/06 00:51:14;;;;;;;8.90;7.13;;;;;;;23.94;55.88;99718.94;5107154;28;20517;-28
2022/08/06 00:53:39;;;;;;;9.82;6.93;;;;;;;23.75;56.50;99721.13;5106576;28;20088;-36
2022/08/06 00:56:05;;;;;;;10.57;7.65;;;;;;;23.54;56.55;99710.78;5107133;28;20107;-30
2022/08/06 00:58:31;;;;;;;8.82;7.15;;;;;;;23.96;55.96;99722.16;5088662;28;20024;-30
2022/08/06 01:00:56;;;;;;;9.43;7.32;;;;;;;24.04;55.82;99726.03;5106859;28;20152;-35
2022/08/06 01:03:22;;;;;;;8.13;7.10;;;;;;;23.84;56.81;99730.13;5106752;28;20031;-32
2022/08/06 01:05:48;;;;;;;29.92;15.70;;;;;;;23.96;55.95;99718.63;5088229;28;20024;-28
2022/08/06 01:08:13;;;;;;;88.05;37.00;;;;;;;23.83;56.36;99712.19;5106602;28;20026;-29
2022/08/06 01:10:39;;;;;;;30.80;17.63;;;;;;;23.59;57.87;99735.13;5106770;28;20015;-29
2022/08/06 01:13:05;;;;;;;33.95;18.23;;;;;;;23.65;57.65;99728.44;5088432;28;20031;-30
2022/08/06 01:15:36;;;;;;;17.63;11.15;;;;;;;23.80;57.65;99726.44;5106564;28;20031;-29
2022/08/06 01:18:18;;;;;;;45.50;23.40;;;;;;;23.97;56.91;99737.38;5088611;28;20089;-35
2022/08/06 01:21:00;;;;;;;34.22;19.48;;;;;;;24.04;56.64;99740.44;5106824;28;20027;-29
2022/08/06 01:23:44;;;;;;;31.25;19.00;;;;;;;23.82;56.93;99705.13;5088518;28;20028;-28
2022/08/06 01:26:13;;;;;;;35.42;19.45;;;;;;;24.08;56.60;99739.81;5088332;28;20020;-32
2022/08/06 01:28:45;;;;;;;31.95;18.00;;;;;;;23.94;57.00;99746.19;5106582;28;20407;-30
2022/08/06 01:31:15;;;;;;;210.68;95.72;;;;;;;23.45;59.47;99720.81;5088210;28;20026;-33
2022/08/06 01:33:44;;;;;;;80.00;41.72;;;;;;;23.13;61.36;99733.63;5088361;28;20056;-28
2022/08/06 01:36:27;;;;;;;52.85;30.20;;;;;;;23.26;61.06;99727.31;5088224;28;20149;-31
2022/08/06 01:38:54;;;;;;;45.05;24.83;;;;;;;23.27;60.93;99717.22;5088231;28;20059;-32
2022/08/06 01:41:39;;;;;;;28.02;18.27;;;;;;;23.42;60.10;99713.31;5106551;28;20031;-30
2022/08/06 01:44:09;;;;;;;48.60;28.00;;;;;;;23.26;60.41;99732.75;5088205;28;20100;-29
2022/08/06 01:47:09;;;;;;;21.83;13.70;;;;;;;23.17;61.61;99722.91;5090958;28;20505;-34
2022/08/06 01:49:37;;;;;;;12.32;10.15;;;;;;;23.10;62.07;99728.81;5088450;28;20075;-31
2022/08/06 01:52:05;;;;;;;13.35;9.35;;;;;;;23.07;62.09;99726.72;5091759;28;20106;-32
2022/08/06 01:54:38;;;;;;;12.45;8.95;;;;;;;23.13;61.83;99727.38;5092000;28;20447;-29
2022/08/06 01:57:06;;;;;;;12.68;9.18;;;;;;;23.04;61.37;99705.56;5091961;28;20032;-30
2022/08/06 01:59:36;;;;;;;13.35;8.88;;;;;;;23.01;61.74;99703.47;5091831;28;20084;-28
2022/08/06 02:02:05;;;;;;;13.43;8.63;;;;;;;22.94;61.91;99703.88;5091812;28;20050;-29
2022/08/06 02:04:34;;;;;;;11.63;8.68;;;;;;;23.14;61.42;99723.56;5091531;28;20078;-29
2022/08/06 02:07:03;;;;;;;12.07;8.45;;;;;;;23.03;62.01;99723.03;5091818;28;20513;-29
2022/08/06 02:09:30;;;;;;;9.68;7.78;;;;;;;23.19;61.11;99715.25;5091558;28;20068;-31
2022/08/06 02:12:01;;;;;;;10.00;7.93;;;;;;;23.22;60.93;99715.44;5091910;28;20099;-29
2022/08/06 02:14:29;;;;;;;11.10;8.35;;;;;;;23.12;61.31;99707.53;5091680;28;20262;-29
2022/08/06 02:16:59;;;;;;;11.15;8.25;;;;;;;23.35;61.06;99718.38;5091543;28;20148;-30
2022/08/06 02:19:29;;;;;;;11.32;8.50;;;;;;;23.29;61.13;99714.97;5091710;28;20103;-28
2022/08/06 02:21:57;;;;;;;10.63;8.60;;;;;;;23.25;61.15;99733.03;5091612;28;20028;-28
2022/08/06 02:24:25;;;;;;;12.52;8.80;;;;;;;23.21;61.63;99722.00;5109711;28;20100;-33
2022/08/06 02:26:52;;;;;;;9.40;8.10;;;;;;;23.18;61.00;99724.53;5091249;28;20114;-29
2022/08/06 02:29:20;;;;;;;12.05;8.98;;;;;;;23.01;61.19;99708.91;5091155;28;20038;-36
2022/08/06 02:31:45;;;;;;;10.15;8.45;;;;;;;23.04;62.28;99728.13;5090805;28;20024;-30
2022/08/06 02:34:11;;;;;;;11.32;9.25;;;;;;;22.81;62.74;99721.88;5091218;28;20067;-31
2022/08/06 02:36:49;;;;;;;38.63;20.55;;;;;;;22.79;62.42;99723.28;5109296;28;20433;-34
2022/08/06 02:39:21;;;;;;;56.85;31.67;;;;;;;22.93;62.37;99734.91;5109509;28;20049;-32
2022/08/06 02:42:08;;;;;;;86.60;42.22;;;;;;;22.80;62.16;99714.00;5109078;28;20046;-29
2022/08/06 02:44:42;;;;;;;54.53;29.20;;;;;;;22.85;62.43;99727.50;5091015;28;20028;-33
2022/08/06 02:47:20;;;;;;;50.53;28.88;;;;;;;22.84;62.70;99721.25;5109680;28;20130;-29
2022/08/06 02:49:52;;;;;;;31.95;20.65;;;;;;;22.68;62.56;99703.72;5090764;28;20032;-32
2022/08/06 02:52:26;;;;;;;52.45;27.38;;;;;;;22.78;62.82;99730.66;5109329;28;20494;-31
2022/08/06 02:55:24;;;;;;;61.15;33.63;;;;;;;22.95;62.01;99727.25;5090747;28;20069;-29
2022/08/06 02:57:55;;;;;;;58.28;33.45;;;;;;;22.65;62.77;99724.13;5108382;28;20099;-29
2022/08/06 03:00:22;;;;;;;76.13;40.33;;;;;;;22.61;63.23;99720.44;5109135;28;20161;-31
2022/08/06 03:02:53;;;;;;;113.57;58.83;;;;;;;22.18;64.43;99695.59;5090420;28;20027;-30
2022/08/06 03:05:21;;;;;;;151.60;71.65;;;;;;;22.15;65.12;99709.75;5090767;28;20036;-29
2022/08/06 03:07:51;;;;;;;131.73;63.85;;;;;;;22.48;62.89;99704.19;5090482;28;20119;-30
2022/08/06 03:10:20;;;;;;;122.13;58.58;;;;;;;22.48;63.57;99701.47;5108968;28;20414;-28
2022/08/06 03:12:46;;;;;;;101.82;47.90;;;;;;;22.33;63.52;99706.16;5090559;28;20104;-30
2022/08/06 03:15:13;;;;;;;62.53;28.55;;;;;;;22.53;62.84;99714.94;5090121;28;20063;-35
2022/08/06 03:17:44;;;;;;;59.53;27.05;;;;;;;22.50;63.01;99721.00;5090053;28;20081;-28
2022/08/06 03:20:10;;;;;;;30.63;15.95;;;;;;;22.30;62.64;99712.19;5090499;28;20092;-32
2022/08/06 03:22:38;;;;;;;24.23;15.25;;;;;;;22.33;62.90;99717.03;5090382;28;20030;-30
2022/08/06 03:25:06;;;;;;;13.68;10.35;;;;;;;21.97;63.92;99704.16;5090309;28;20538;-32
2022/08/06 03:27:33;;;;;;;18.10;10.13;;;;;;;22.05;63.67;99706.16;5089877;28;20035;-29
2022/08/06 03:30:00;;;;;;;18.80;11.10;;;;;;;22.00;64.43;99721.75;5089768;28;20028;-32
2022/08/06 03:32:26;;;;;;;20.15;12.13;;;;;;;21.99;64.87;99718.25;5090269;28;20028;-31
2022/08/06 03:34:53;;;;;;;16.95;11.10;;;;;;;22.16;63.87;99712.19;5089944;28;20114;-29
2022/08/06 03:37:20;;;;;;;16.63;10.45;;;;;;;21.97;64.30;99720.47;5108471;28;20217;-29
2022/08/06 03:39:48;;;;;;;19.55;10.85;;;;;;;21.87;64.05;99715.25;5089823;28;20059;-33
2022/08/06 03:42:13;;;;;;;16.13;10.82;;;;;;;21.97;63.72;99727.81;5089826;28;20024;-29
2022/08/06 03:44:39;;;;;;;16.98;10.95;;;;;;;21.91;63.70;99708.09;5107582;28;20089;-32
2022/08/06 03:47:28;;;;;;;14.85;9.75;;;;;;;22.24;62.49;99716.13;5108309;28;20423;-31
2022/08/06 03:50:05;;;;;;;17.95;10.35;;;;;;;22.37;62.27;99726.16;5089908;28;20479;-29
2022/08/06 03:52:36;;;;;;;12.77;9.43;;;;;;;22.20;62.38;99728.66;5090018;28;20054;-32
2022/08/06 03:55:04;;;;;;;11.52;8.73;;;;;;;22.18;63.19;99742.53;5108339;28;20031;-29
2022/08/06 03:57:40;;;;;;;15.60;10.45;;;;;;;22.15;63.93;99731.47;5090160;28;20019;-30
2022/08/06 04:00:09;;;;;;;14.90;10.27;;;;;;;22.32;63.20;99722.75;5108225;28;20074;-34
2022/08/06 04:02:42;;;;;;;18.77;11.48;;;;;;;22.01;64.95;99718.75;5089537;28;20036;-29
2022/08/06 04:05:10;;;;;;;35.10;19.30;;;;;;;21.97;65.83;99731.31;5089782;28;20482;-29
2022/08/06 04:07:36;;;;;;;33.00;18.60;;;;;;;22.21;65.43;99738.41;5088207;28;20023;-32
2022/08/06 04:10:02;;;;;;;31.38;17.40;;;;;;;22.26;65.24;99733.72;5089780;28;20126;-29
2022/08/06 04:12:31;;;;;;;24.65;14.25;;;;;;;22.64;63.87;99746.22;5089540;28;20019;-29
2022/08/06 04:14:56;;;;;;;37.03;22.08;;;;;;;22.61;63.96;99734.03;5089297;28;20593;-29
2022/08/06 04:17:23;;;;;;;37.90;23.15;;;;;;;22.78;63.96;99736.09;5107429;28;20092;-32
2022/08/06 04:19:51;;;;;;;35.40;21.15;;;;;;;22.92;63.18;99732.50;5089325;28;20438;-28
2022/08/06 04:22:16;;;;;;;;;;;;;;;22.90;64.03;99745.59;5089543;28;20031;-30
2022/08/06 04:24:41;;;;;;;32.85;19.90;;;;;;;23.10;63.31;99750.56;5107812;28;19914;-31
2022/08/06 04:27:08;;;;;;;21.42;12.35;;;;;;;23.20;63.09;99742.16;5107394;28;20115;-29
2022/08/06 04:29:36;;;;;;;20.00;14.18;;;;;;;23.29;62.54;99736.75;5108019;28;20059;-29
2022/08/06 04:32:03;;;;;;;51.13;27.20;;;;;;;23.31;61.80;99733.72;5089341;28;20042;-31
2022/08/06 04:34:30;;;;;;;53.60;27.85;;;;;;;23.26;62.38;99751.78;5088978;28;20031;-31
2022/08/06 04:36:58;;;;;;;60.25;29.83;;;;;;;23.39;62.37;99752.81;5089363;28;20036;-28
2022/08/06 04:39:25;;;;;;;40.08;20.50;;;;;;;23.14;63.01;99732.50;5088875;28;20482;-31
2022/08/06 04:41:52;;;;;;;45.70;24.60;;;;;;;23.32;60.99;99747.03;5089154;28;20028;-31
2022/08/06 04:44:17;;;;;;;37.35;20.65;;;;;;;23.10;61.47;99755.22;5107486;28;20035;-29
2022/08/06 04:46:48;;;;;;;32.35;17.88;;;;;;;23.04;61.16;99757.25;5106939;28;20067;-29
2022/08/06 04:49:17;;;;;;;22.20;15.15;;;;;;;23.10;62.49;99756.00;5107166;28;20060;-29
2022/08/06 04:51:46;;;;;;;26.35;16.45;;;;;;;23.25;60.85;99758.34;5107577;28;20084;-29
2022/08/06 04:54:13;;;;;;;33.88;21.73;;;;;;;23.31;60.39;99760.94;5088977;28;20114;-30
2022/08/06 04:56:40;;;;;;;26.92;17.50;;;;;;;23.29;61.40;99758.50;5089001;28;20035;-29
2022/08/06 04:59:05;;;;;;;24.77;14.35;;;;;;;23.38;61.09;99743.06;5107629;28;20027;-29
2022/08/06 05:01:31;;;;;;;22.20;16.10;;;;;;;23.60;60.65;99747.66;5106735;28;20565;-29
2022/08/06 05:03:56;;;;;;;20.02;14.32;;;;;;;23.64;60.66;99736.94;5089022;28;20423;-34
2022/08/06 05:06:29;;;;;;;20.55;15.00;;;;;;;23.82;60.22;99740.53;5107275;28;20439;-32
2022/08/06 05:09:04;;;;;;;12.48;10.20;;;;;;;24.20;59.67;99759.06;5088936;28;20038;-30
2022/08/06 05:11:40;;;;;;;18.92;12.25;;;;;;;24.16;59.36;99763.56;5088925;28;20038;-30
2022/08/06 05:14:13;;;;;;;19.08;12.73;;;;;;;24.11;59.63;99752.78;5088759;28;20031;-32
2022/08/06 05:16:41;;;;;;;25.95;15.48;;;;;;;24.07;59.72;99744.47;5088062;28;20047;-29
2022/08/06 05:19:14;;;;;;;19.35;12.68;;;;;;;24.08;59.13;99750.72;5088764;28;20098;-30
2022/08/06 05:21:41;;;;;;;14.25;10.25;;;;;;;24.13;59.58;99736.94;5110099;28;20065;-29
2022/08/06 05:24:07;;;;;;;11.80;9.17;;;;;;;24.21;58.86;99744.31;5092039;28;20031;-30
2022/08/06 05:26:34;;;;;;;14.15;9.73;;;;;;;24.36;59.26;99746.59;5110116;28;20049;-32
2022/08/06 05:28:59;;;;;;;29.98;10.75;;;;;;;24.52;57.97;99737.97;5091443;28;20033;-28
2022/08/06 05:31:36;;;;;;;12.50;9.02;;;;;;;24.90;55.55;99753.69;5091315;28;20028;-32
2022/08/06 05:34:02;;;;;;;12.48;8.88;;;;;;;24.75;56.75;99758.50;5110217;28;20027;-31
2022/08/06 05:36:28;;;;;;;13.63;9.48;;;;;;;25.13;55.50;99755.13;5109917;28;20027;-32
2022/08/06 05:38:54;;;;;;;12.45;8.82;;;;;;;24.87;54.63;99741.50;5091579;28;20034;-30
2022/08/06 05:41:19;;;;;;;12.40;7.45;;;;;;;24.99;53.03;99744.38;5091159;28;20042;-29
2022/08/06 05:43:45;;;;;;;14.13;10.13;;;;;;;24.95;54.25;99757.06;5109726;28;20482;-30
2022/08/06 05:46:17;;;;;;;14.57;9.02;;;;;;;25.24;53.88;99770.03;5109535;28;20081;-32
2022/08/06 05:48:49;;;;;;;13.77;9.15;;;;;;;25.23;53.13;99762.16;5091283;28;20032;-29
2022/08/06 05:51:40;;;;;;;18.27;8.80;;;;;;;25.18;52.91;99749.47;5091469;28;20028;-29
2022/08/06 05:54:27;;;;;;;8.93;7.03;;;;;;;25.54;52.67;99761.94;5059948;28;20032;-30
2022/08/06 05:57:03;;;;;;;16.92;9.80;;;;;;;25.57;51.93;99761.28;5109411;28;20031;-32
2022/08/06 05:59:32;;;;;;;12.80;8.82;;;;;;;25.69;51.99;99762.53;5090760;28;20035;-30
2022/08/06 06:01:58;;;;;;;17.85;11.15;;;;;;;25.71;50.73;99749.34;5090493;28;20028;-32
2022/08/06 06:04:25;;;;;;;15.45;8.00;;;;;;;25.78;51.09;99766.00;5090912;28;20027;-31
2022/08/06 06:06:50;;;;;;;8.30;7.17;;;;;;;25.92;51.20;99766.63;5090743;28;20039;-29
2022/08/06 06:09:16;;;;;;;10.13;7.22;;;;;;;26.03;50.70;99743.25;5109036;28;20268;-33
2022/08/06 06:11:43;;;;;;;8.80;7.05;;;;;;;26.35;50.48;99768.28;5089531;28;20089;-31
2022/08/06 06:14:32;;;;;;;9.00;6.80;;;;;;;26.28;49.89;99759.84;5090892;28;20088;-35
2022/08/06 06:17:13;;;;;;;9.30;7.65;;;;;;;26.16;50.02;99760.53;5090673;28;20040;-29
2022/08/06 06:19:45;;;;;;;11.70;7.38;;;;;;;26.39;49.39;99766.50;5090465;28;20028;-32
2022/08/06 06:22:34;;;;;;;9.65;7.55;;;;;;;26.68;49.13;99761.34;5090432;28;20037;-31
2022/08/06 06:25:07;;;;;;;11.27;7.18;;;;;;;26.66;49.35;99753.44;5090176;28;20031;-28
2022/08/06 06:27:45;;;;;;;13.07;8.30;;;;;;;26.75;48.97;99743.25;5090444;28;20028;-32
2022/08/06 06:30:19;;;;;;;10.85;7.47;;;;;;;26.70;48.58;99746.19;5108647;28;20454;-33
2022/08/06 06:33:14;;;;;;;11.27;8.23;;;;;;;26.83;49.11;99752.53;5108565;28;20024;-31
2022/08/06 06:36:03;;;;;;;10.43;7.75;;;;;;;26.96;48.64;99751.41;5090199;28;20501;-30
2022/08/06 06:39:04;;;;;;;10.98;8.13;;;;;;;27.25;47.95;99750.50;5090397;28;20063;-35
2022/08/06 06:41:40;;;;;;;21.55;13.18;;;;;;;27.22;48.39;99745.69;5074730;28;20059;-33
2022/08/06 06:44:18;;;;;;;15.05;10.00;;;;;;;27.14;47.52;99713.72;5108615;28;20196;-29
2022/08/06 06:46:48;;;;;;;10.93;7.50;;;;;;;27.45;47.47;99742.56;5089898;28;20054;-28
2022/08/06 06:49:20;;;;;;;10.73;7.13;;;;;;;27.60;47.29;99739.19;5090112;28;20484;-34
2022/08/06 06:52:05;;;;;;;12.52;8.32;;;;;;;27.83;46.72;99738.72;5090038;28;20100;-31
2022/08/06 06:54:39;;;;;;;10.77;8.75;;;;;;;27.80;45.75;99744.88;5108579;28;20080;-29
2022/08/06 06:57:09;;;;;;;14.18;10.15;;;;;;;27.89;46.03;99737.38;5090018;28;20595;-31
2022/08/06 06:59:38;;;;;;;13.82;10.90;;;;;;;27.76;45.59;99738.47;5090019;28;20576;-32
2022/08/06 07:02:06;;;;;;;17.25;10.90;;;;;;;27.90;46.43;99719.78;5089799;28;20024;-32
2022/08/06 07:04:34;;;;;;;11.70;7.47;;;;;;;28.28;45.42;99729.56;5089671;28;20031;-29
2022/08/06 07:07:02;;;;;;;20.60;10.50;;;;;;;28.30;44.52;99727.28;5090084;28;20088;-30
2022/08/06 07:09:32;;;;;;;10.40;8.32;;;;;;;28.36;44.36;99728.63;5089443;28;20057;-29
2022/08/06 07:11:58;;;;;;;9.77;7.30;;;;;;;28.51;43.29;99713.41;5089751;28;20495;-29
2022/08/06 07:14:25;;;;;;;11.27;7.97;;;;;;;28.50;43.46;99728.25;5089997;28;20066;-31
2022/08/06 07:16:55;;;;;;;10.07;6.25;;;;;;;28.65;43.66;99732.22;5089823;28;20031;-29
2022/08/06 07:19:22;;;;;;;7.32;6.22;;;;;;;28.33;45.12;99729.31;5090076;28;20035;-30
2022/08/06 07:21:49;;;;;;;12.18;7.38;;;;;;;28.25;44.47;99716.53;5089911;28;20020;-29
2022/08/06 07:24:17;;;;;;;12.85;7.03;;;;;;;28.62;44.55;99719.19;5089452;28;20035;-33
2022/08/06 07:26:43;;;;;;;;;;;;;;;28.83;44.54;99728.03;5089757;28;20115;-29
2022/08/06 07:29:10;;;;;;;8.85;6.60;;;;;;;28.72;44.54;99717.91;5107488;28;20349;-35
2022/08/06 07:31:37;;;;;;;9.30;7.38;;;;;;;28.72;44.16;99715.16;5088987;28;20032;-34
2022/08/06 07:34:03;;;;;;;11.02;6.78;;;;;;;29.07;43.52;99720.81;5107627;28;20045;-28
2022/08/06 07:36:37;;;;;;;8.15;6.60;;;;;;;29.31;43.30;99713.59;5107784;28;20040;-35
2022/08/06 07:39:08;;;;;;;9.40;6.88;;;;;;;29.56;43.35;99714.22;5089361;28;20054;-30
2022/08/06 07:41:36;;;;;;;9.52;7.40;;;;;;;29.68;42.69;99707.84;5089133;28;20042;-35
2022/08/06 07:44:03;;;;;;;9.77;6.65;;;;;;;29.38;43.90;99716.50;5088654;28;20590;-28
2022/08/06 07:46:37;;;;;;;10.48;8.10;;;;;;;29.36;43.65;99696.84;5107149;28;20058;-28
2022/08/06 07:49:06;;;;;;;8.93;6.40;;;;;;;29.57;43.00;99705.63;5089145;28;20571;-29
2022/08/06 07:51:38;;;;;;;10.10;6.80;;;;;;;29.79;44.23;99704.22;5071803;28;20126;-30
2022/08/06 07:54:06;;;;;;;9.10;6.68;;;;;;;29.83;42.38;99693.28;5088860;28;20502;-28
2022/08/06 07:56:35;;;;;;;9.85;7.20;;;;;;;30.09;43.54;99689.94;5088599;28;20035;-29
2022/08/06 07:59:03;;;;;;;7.95;6.68;;;;;;;30.11;42.25;99681.34;5088471;28;20092;-28
2022/08/06 08:01:29;;;;;;;8.10;6.32;;;;;;;30.38;42.38;99693.31;5106984;28;20023;-29
2022/08/06 08:06:40;;;;;;;8.30;6.45;;;;;;;30.42;42.22;99680.44;5107098;28;20065;-31
2022/08/06 08:09:15;;;;;;;8.15;6.50;;;;;;;30.56;41.14;99694.47;5088206;28;20130;-30
2022/08/06 08:11:42;;;;;;;9.73;6.93;;;;;;;30.66;41.67;99682.09;5088336;28;20043;-30
2022/08/06 08:14:09;;;;;;;7.40;6.35;;;;;;;30.89;41.91;99684.13;5088384;28;20084;-29
2022/08/06 08:16:36;;;;;;;8.98;6.53;;;;;;;30.96;41.63;99676.00;5088273;28;20064;-31
2022/08/06 08:19:02;;;;;;;8.63;6.60;;;;;;;31.16;42.04;99685.78;5088161;28;20032;-29
2022/08/06 08:21:28;;;;;;;8.52;6.30;;;;;;;31.29;40.56;99691.13;5106034;28;20027;-29
2022/08/06 08:23:55;;;;;;;9.52;6.50;;;;;;;31.38;39.89;99658.59;5087925;28;20031;-31
2022/08/06 08:26:21;;;;;;;12.03;7.97;;;;;;;31.68;39.12;99668.94;5087884;28;20615;-33
2022/08/06 08:28:46;;;;;;;8.82;6.10;;;;;;;31.98;38.67;99686.28;5106201;28;20475;-35
2022/08/06 08:31:13;;;;;;;8.63;6.10;;;;;;;31.91;38.72;99675.16;5106251;28;20080;-30
2022/08/06 08:33:39;;;;;;;7.78;6.30;;;;;;;31.90;37.38;99661.75;5087525;28;20028;-34
2022/08/06 08:36:06;;;;;;;15.00;8.50;;;;;;;32.17;39.20;99679.88;5087590;28;20040;-32
2022/08/06 08:38:33;;;;;;;11.43;7.35;;;;;;;32.12;37.17;99657.31;5087509;28;20034;-31
2022/08/06 08:41:27;;;;;;;11.20;6.40;;;;;;;32.71;36.97;99680.53;5087629;28;20035;-37
2022/08/06 08:44:01;;;;;;;8.80;5.93;;;;;;;32.60;37.00;99679.63;5103484;28;20118;-30
2022/08/06 08:46:28;;;;;;;11.45;6.95;;;;;;;32.61;37.69;99675.69;5106166;28;20081;-29
2022/08/06 08:48:57;;;;;;;8.55;6.10;;;;;;;33.06;37.57;99672.97;5106000;28;20040;-28
2022/08/06 08:51:24;;;;;;;13.40;7.05;;;;;;;33.30;36.24;99672.41;5087545;28;20073;-30
2022/08/06 08:53:55;;;;;;;8.88;6.00;;;;;;;33.40;35.48;99676.44;5105585;28;20110;-30
2022/08/06 08:56:22;;;;;;;9.07;6.35;;;;;;;32.88;34.66;99667.31;5106050;28;20020;-29
2022/08/06 08:58:48;;;;;;;6.90;5.80;;;;;;;33.00;35.60;99664.25;5087119;28;20499;-32
2022/08/06 09:01:15;;;;;;;7.80;5.75;;;;;;;33.03;34.87;99664.25;5087219;28;20618;-31
2022/08/06 09:03:41;;;;;;;;;;;;;;;33.20;34.18;99662.88;5106647;28;20119;-31
2022/08/06 09:06:07;;;;;;;11.93;6.43;;;;;;;33.54;35.61;99662.72;5105986;28;19953;-30
2022/08/06 09:08:33;;;;;;;8.82;5.93;;;;;;;33.54;33.03;99659.97;5087314;28;20126;-30
2022/08/06 09:10:59;;;;;;;7.20;5.82;;;;;;;33.53;32.56;99666.69;5105811;28;20165;-29
2022/08/06 09:13:28;;;;;;;7.03;5.67;;;;;;;33.34;33.36;99650.34;5087003;28;20453;-34
2022/08/06 09:15:55;;;;;;;16.60;9.85;;;;;;;33.81;33.86;99643.16;5086805;28;20322;-30
2022/08/06 09:18:22;;;;;;;7.83;6.00;;;;;;;33.73;33.62;99622.97;5087296;28;20035;-32
2022/08/06 09:20:48;;;;;;;12.30;6.82;;;;;;;34.33;33.31;99632.75;5105800;28;20031;-30
2022/08/06 09:23:17;;;;;;;6.90;5.50;;;;;;;34.67;32.58;99643.53;5087014;28;20051;-31
2022/08/06 09:25:48;;;;;;;9.85;6.60;;;;;;;34.93;32.00;99619.44;5105213;28;20106;-34
2022/08/06 09:28:26;;;;;;;7.80;6.13;;;;;;;35.18;31.71;99639.66;5086917;28;20494;-33
2022/08/06 09:31:05;;;;;;;7.40;5.47;;;;;;;34.45;30.98;99628.84;5105534;28;20074;-30
2022/08/06 09:33:34;;;;;;;7.93;5.68;;;;;;;34.06;32.09;99631.44;5086810;28;20023;-36
2022/08/06 09:36:06;;;;;;;8.57;6.00;;;;;;;34.54;32.76;99634.78;5087044;28;20509;-29
2022/08/06 09:38:45;;;;;;;7.35;5.28;;;;;;;34.70;30.45;99633.69;5087164;28;20736;-33
2022/08/06 09:41:12;;;;;;;5.72;5.13;;;;;;;34.92;31.61;99626.16;5105641;28;20055;-31
2022/08/06 09:43:38;;;;;;;8.30;5.90;;;;;;;35.02;31.20;99625.38;5086673;28;20035;-30
2022/08/06 09:46:06;;;;;;;7.78;5.78;;;;;;;34.94;30.49;99613.50;5104985;28;20052;-35
2022/08/06 09:48:31;;;;;;;9.68;5.45;;;;;;;35.04;30.45;99611.13;5087204;28;20032;-29
2022/08/06 09:50:57;;;;;;;7.20;5.68;;;;;;;35.39;30.34;99625.00;5105592;28;20456;-35
2022/08/06 09:53:24;;;;;;;10.20;5.90;;;;;;;35.70;29.78;99622.59;5086953;28;20134;-38
2022/08/06 09:55:51;;;;;;;7.43;5.30;;;;;;;35.55;30.31;99619.03;5087077;28;20122;-30
2022/08/06 09:58:28;;;;;;;8.25;5.78;;;;;;;34.84;31.63;99617.06;5086926;28;20280;-33
2022/08/06 10:00:55;;;;;;;7.45;5.28;;;;;;;34.62;30.70;99605.16;5105306;28;20059;-35
2022/08/06 10:03:20;;;;;;;8.63;5.95;;;;;;;34.65;31.92;99609.13;5086857;28;20034;-29
2022/08/06 10:05:46;;;;;;;7.60;5.88;;;;;;;34.72;31.10;99609.16;5105083;28;20019;-36
2022/08/06 10:08:17;;;;;;;8.52;5.55;;;;;;;34.41;30.83;99619.75;5109200;28;20418;-30
2022/08/06 10:10:51;;;;;;;8.75;5.55;;;;;;;34.07;31.86;99608.91;5109378;28;20554;-33
2022/08/06 10:13:23;;;;;;;7.32;5.50;;;;;;;34.04;31.37;99604.16;5090374;28;20172;-31
2022/08/06 10:15:49;;;;;;;8.30;5.70;;;;;;;34.05;31.97;99580.06;5108813;28;20024;-31
2022/08/06 10:18:42;;;;;;;9.70;5.60;;;;;;;34.28;31.72;99608.22;5090164;28;20028;-30
2022/08/06 10:21:15;;;;;;;7.55;6.15;;;;;;;34.58;32.25;99590.50;5108960;28;20027;-31
2022/08/06 10:23:45;;;;;;;9.13;7.28;;;;;;;34.75;30.36;99581.44;5108681;28;20039;-28
2022/08/06 10:26:12;;;;;;;8.13;6.15;;;;;;;35.42;31.08;99584.59;5108739;28;20109;-29
2022/08/06 10:28:41;;;;;;;8.45;5.10;;;;;;;35.77;29.89;99586.47;5090136;28;20026;-30
2022/08/06 10:31:11;;;;;;;5.65;5.00;;;;;;;35.74;29.52;99583.75;5090309;28;20066;-34
2022/08/06 10:33:45;;;;;;;7.60;5.57;;;;;;;35.78;29.01;99578.97;5090095;28;20024;-32
2022/08/06 10:36:15;;;;;;;6.32;5.43;;;;;;;35.62;29.23;99573.84;5090235;28;20028;-29
2022/08/06 10:38:45;;;;;;;6.35;5.13;;;;;;;35.98;29.63;99577.28;5090337;28;20026;-31
2022/08/06 10:41:12;;;;;;;6.32;5.15;;;;;;;35.91;28.39;99569.00;5090055;28;20055;-35
2022/08/06 10:43:39;;;;;;;5.78;5.07;;;;;;;35.70;28.68;99560.78;5090007;28;20035;-29
2022/08/06 10:46:07;;;;;;;6.85;5.18;;;;;;;34.94;29.56;99573.91;5089536;28;21283;-32
2022/08/06 10:48:35;;;;;;;6.20;5.15;;;;;;;34.64;30.30;99566.00;5108371;28;20499;-30
2022/08/06 10:51:02;;;;;;;8.68;5.85;;;;;;;34.71;30.72;99564.03;5108173;28;20032;-28
2022/08/06 10:53:27;;;;;;;;;;;;;;;34.68;31.81;99570.38;5108468;28;20035;-29
2022/08/06 10:55:54;;;;;;;7.73;5.03;;;;;;;34.90;30.26;99571.16;5107897;28;19912;-32
2022/08/06 10:58:20;;;;;;;8.82;5.13;;;;;;;34.98;30.77;99571.94;5089679;28;20039;-30
2022/08/06 11:00:46;;;;;;;9.18;5.40;;;;;;;34.84;30.48;99560.84;5089605;28;20032;-29
2022/08/06 11:03:32;;;;;;;8.80;6.80;;;;;;;34.59;30.89;99561.63;5089556;28;20557;-31
2022/08/06 11:06:22;;;;;;;9.38;7.47;;;;;;;34.27;31.42;99540.22;5100005;28;20473;-29
2022/08/06 11:09:09;;;;;;;9.88;5.93;;;;;;;34.11;31.31;99559.13;5107995;28;20029;-29
2022/08/06 11:11:47;;;;;;;;;;;;;;;34.21;30.90;99558.41;5107990;28;20028;-30
2022/08/06 11:14:14;;;;;;;6.70;5.82;;;;;;;33.91;31.91;99542.06;5089431;28;19912;-30
2022/08/06 11:16:40;;;;;;;13.30;8.38;;;;;;;34.12;32.23;99546.88;5107174;28;20490;-33
2022/08/06 11:19:09;;;;;;;10.75;7.28;;;;;;;34.22;31.80;99544.19;5107855;28;20042;-33
2022/08/06 11:21:44;;;;;;;8.75;5.65;;;;;;;34.55;31.58;99544.19;5088718;28;20038;-33
2022/08/06 11:24:10;;;;;;;6.75;4.95;;;;;;;35.31;31.21;99522.81;5107481;28;20063;-29
2022/08/06 11:26:42;;;;;;;8.05;6.22;;;;;;;35.32;29.37;99538.28;5088859;28;20027;-29
2022/08/06 11:29:09;;;;;;;5.82;4.97;;;;;;;34.90;29.91;99534.34;5106995;28;20080;-29
2022/08/06 11:31:37;;;;;;;6.57;5.50;;;;;;;34.73;29.78;99528.41;5088570;28;20155;-30
2022/08/06 11:34:06;;;;;;;7.97;5.47;;;;;;;34.65;30.93;99532.38;5088924;28;20118;-31
2022/08/06 11:36:44;;;;;;;7.85;5.53;;;;;;;34.60;31.08;99541.06;5107108;28;20115;-33
2022/08/06 11:39:10;;;;;;;6.68;5.57;;;;;;;34.34;31.13;99534.69;5107079;28;20031;-33
2022/08/06 11:41:53;;;;;;;9.63;5.43;;;;;;;33.97;31.93;99538.53;5106593;28;20120;-31
2022/08/06 11:44:20;;;;;;;12.70;5.90;;;;;;;33.94;33.51;99539.31;5088527;28;20035;-29